sensor_id;sensor_type;location;lat;lon;timestamp;P1;durP1;ratioP1;P2;durP2;ratioP2
17917;SDS011;9084;50.956;3.106;2023-05-10T00:02:00;12.10;;;10.30;;
17917;SDS011;9084;50.956;3.106;2023-05-10T00:04:26;11.02;;;9.88;;
17917;SDS011;9084;50.956;3.106;2023-05-10T00:06:52;14.00;;;10.00;;
17917;SDS011;9084;50.956;3.106;2023-05-10T00:09:18;10.77;;;9.68;;
17917;SDS011;9084;50.956;3.106;2023-05-10T00:11:44;10.95;;;9.82;;
17917;SDS011;9084;50.956;3.106;2023-05-10T00:14:12;10.27;;;9.15;;
17917;SDS011;9084;50.956;3.106;2023-05-10T00:16:37;11.55;;;10.35;;
17917;SDS011;9084;50.956;3.106;2023-05-10T00:19:05;11.75;;;9.93;;
17917;SDS011;9084;50.956;3.106;2023-05-10T00:21:31;10.02;;;8.73;;
17917;SDS011;9084;50.956;3.106;2023-05-10T00:23:59;11.52;;;10.15;;
17917;SDS011;9084;50.956;3.106;2023-05-10T00:26:27;12.38;;;10.95;;
17917;SDS011;9084;50.956;3.106;2023-05-10T00:28:55;14.40;;;11.15;;
17917;SDS011;9084;50.956;3.106;2023-05-10T00:31:23;13.75;;;11.98;;
17917;SDS011;9084;50.956;3.106;2023-05-10T00:33:51;14.60;;;11.88;;
17917;SDS011;9084;50.956;3.106;2023-05-10T00:36:19;14.20;;;12.05;;
17917;SDS011;9084;50.956;3.106;2023-05-10T00:38:46;12.88;;;11.30;;
17917;SDS011;9084;50.956;3.106;2023-05-10T00:41:11;13.40;;;11.10;;
17917;SDS011;9084;50.956;3.106;2023-05-10T00:43:37;13.38;;;11.55;;
17917;SDS011;9084;50.956;3.106;2023-05-10T00:46:03;14.30;;;11.60;;
17917;SDS011;9084;50.956;3.106;2023-05-10T00:48:29;13.25;;;11.02;;
17917;SDS011;9084;50.956;3.106;2023-05-10T00:50:55;12.07;;;10.70;;
17917;SDS011;9084;50.956;3.106;2023-05-10T00:53:21;15.30;;;11.43;;
17917;SDS011;9084;50.956;3.106;2023-05-10T00:55:47;12.68;;;10.52;;
17917;SDS011;9084;50.956;3.106;2023-05-10T00:58:12;13.75;;;12.35;;
17917;SDS011;9084;50.956;3.106;2023-05-10T01:00:38;14.15;;;11.70;;
17917;SDS011;9084;50.956;3.106;2023-05-10T01:03:11;13.00;;;11.63;;
17917;SDS011;9084;50.956;3.106;2023-05-10T01:05:37;13.55;;;12.15;;
17917;SDS011;9084;50.956;3.106;2023-05-10T01:08:03;13.00;;;10.18;;
17917;SDS011;9084;50.956;3.106;2023-05-10T01:10:31;12.80;;;11.60;;
17917;SDS011;9084;50.956;3.106;2023-05-10T01:12:59;11.07;;;9.80;;
17917;SDS011;9084;50.956;3.106;2023-05-10T01:15:25;12.23;;;9.00;;
17917;SDS011;9084;50.956;3.106;2023-05-10T01:17:54;13.55;;;9.50;;
17917;SDS011;9084;50.956;3.106;2023-05-10T01:20:21;10.63;;;9.25;;
17917;SDS011;9084;50.956;3.106;2023-05-10T01:25:51;9.85;;;8.85;;
17917;SDS011;9084;50.956;3.106;2023-05-10T01:34:01;10.63;;;9.55;;
17917;SDS011;9084;50.956;3.106;2023-05-10T01:42:05;11.77;;;10.27;;
17917;SDS011;9084;50.956;3.106;2023-05-10T01:47:36;14.43;;;13.13;;
17917;SDS011;9084;50.956;3.106;2023-05-10T01:50:06;12.98;;;11.00;;
17917;SDS011;9084;50.956;3.106;2023-05-10T01:52:44;14.45;;;12.45;;
17917;SDS011;9084;50.956;3.106;2023-05-10T01:55:20;13.50;;;11.82;;
17917;SDS011;9084;50.956;3.106;2023-05-10T01:57:51;14.52;;;13.02;;
17917;SDS011;9084;50.956;3.106;2023-05-10T02:00:23;14.13;;;12.73;;
17917;SDS011;9084;50.956;3.106;2023-05-10T02:02:52;13.00;;;11.55;;
17917;SDS011;9084;50.956;3.106;2023-05-10T02:05:19;13.10;;;11.48;;
17917;SDS011;9084;50.956;3.106;2023-05-10T02:07:47;13.32;;;12.02;;
17917;SDS011;9084;50.956;3.106;2023-05-10T02:10:13;14.48;;;11.65;;
17917;SDS011;9084;50.956;3.106;2023-05-10T02:12:44;14.68;;;13.20;;
17917;SDS011;9084;50.956;3.106;2023-05-10T02:15:14;14.18;;;11.93;;
17917;SDS011;9084;50.956;3.106;2023-05-10T02:17:49;13.90;;;11.52;;
17917;SDS011;9084;50.956;3.106;2023-05-10T02:20:16;14.13;;;12.23;;
17917;SDS011;9084;50.956;3.106;2023-05-10T02:22:44;14.70;;;13.15;;
17917;SDS011;9084;50.956;3.106;2023-05-10T02:25:13;16.02;;;13.05;;
17917;SDS011;9084;50.956;3.106;2023-05-10T02:27:40;15.07;;;12.63;;
17917;SDS011;9084;50.956;3.106;2023-05-10T02:30:08;17.52;;;12.27;;
17917;SDS011;9084;50.956;3.106;2023-05-10T02:32:35;16.45;;;12.93;;
17917;SDS011;9084;50.956;3.106;2023-05-10T02:35:04;13.73;;;12.20;;
17917;SDS011;9084;50.956;3.106;2023-05-10T02:37:31;17.33;;;13.55;;
17917;SDS011;9084;50.956;3.106;2023-05-10T02:39:59;18.70;;;12.90;;
17917;SDS011;9084;50.956;3.106;2023-05-10T02:42:28;16.40;;;12.80;;
17917;SDS011;9084;50.956;3.106;2023-05-10T02:45:05;17.35;;;13.18;;
17917;SDS011;9084;50.956;3.106;2023-05-10T02:47:35;18.02;;;13.07;;
17917;SDS011;9084;50.956;3.106;2023-05-10T02:50:04;15.20;;;11.73;;
17917;SDS011;9084;50.956;3.106;2023-05-10T02:52:36;17.77;;;13.85;;
17917;SDS011;9084;50.956;3.106;2023-05-10T02:55:05;16.15;;;14.32;;
17917;SDS011;9084;50.956;3.106;2023-05-10T02:57:38;18.17;;;16.20;;
17917;SDS011;9084;50.956;3.106;2023-05-10T03:00:17;20.08;;;15.90;;
17917;SDS011;9084;50.956;3.106;2023-05-10T03:02:45;19.45;;;17.30;;
17917;SDS011;9084;50.956;3.106;2023-05-10T03:05:10;25.95;;;19.67;;
17917;SDS011;9084;50.956;3.106;2023-05-10T03:07:36;23.20;;;16.50;;
17917;SDS011;9084;50.956;3.106;2023-05-10T03:10:02;21.55;;;17.10;;
17917;SDS011;9084;50.956;3.106;2023-05-10T03:12:41;23.23;;;18.90;;
17917;SDS011;9084;50.956;3.106;2023-05-10T03:18:25;23.10;;;19.30;;
17917;SDS011;9084;50.956;3.106;2023-05-10T03:21:12;20.95;;;17.67;;
17917;SDS011;9084;50.956;3.106;2023-05-10T03:23:43;22.90;;;17.17;;
17917;SDS011;9084;50.956;3.106;2023-05-10T03:26:23;27.02;;;18.30;;
17917;SDS011;9084;50.956;3.106;2023-05-10T03:28:53;25.15;;;19.60;;
17917;SDS011;9084;50.956;3.106;2023-05-10T03:31:20;24.17;;;17.85;;
17917;SDS011;9084;50.956;3.106;2023-05-10T03:33:49;20.23;;;16.75;;
17917;SDS011;9084;50.956;3.106;2023-05-10T03:36:19;21.27;;;18.10;;
17917;SDS011;9084;50.956;3.106;2023-05-10T03:38:48;28.17;;;18.48;;
17917;SDS011;9084;50.956;3.106;2023-05-10T03:41:13;23.33;;;17.88;;
17917;SDS011;9084;50.956;3.106;2023-05-10T03:43:41;25.48;;;17.92;;
17917;SDS011;9084;50.956;3.106;2023-05-10T03:46:07;21.60;;;16.70;;
17917;SDS011;9084;50.956;3.106;2023-05-10T03:48:33;23.35;;;16.92;;
17917;SDS011;9084;50.956;3.106;2023-05-10T03:51:01;22.05;;;17.27;;
17917;SDS011;9084;50.956;3.106;2023-05-10T03:53:27;27.13;;;18.27;;
17917;SDS011;9084;50.956;3.106;2023-05-10T03:55:52;24.92;;;18.42;;
17917;SDS011;9084;50.956;3.106;2023-05-10T03:58:18;27.00;;;19.38;;
17917;SDS011;9084;50.956;3.106;2023-05-10T04:00:44;28.50;;;18.20;;
17917;SDS011;9084;50.956;3.106;2023-05-10T04:03:10;26.48;;;21.02;;
17917;SDS011;9084;50.956;3.106;2023-05-10T04:05:37;26.27;;;20.73;;
17917;SDS011;9084;50.956;3.106;2023-05-10T04:08:03;24.80;;;19.80;;
17917;SDS011;9084;50.956;3.106;2023-05-10T04:10:31;26.70;;;18.45;;
17917;SDS011;9084;50.956;3.106;2023-05-10T04:12:57;28.75;;;18.17;;
17917;SDS011;9084;50.956;3.106;2023-05-10T04:15:25;27.38;;;17.20;;
17917;SDS011;9084;50.956;3.106;2023-05-10T04:17:51;25.48;;;18.05;;
17917;SDS011;9084;50.956;3.106;2023-05-10T04:20:17;26.05;;;20.83;;
17917;SDS011;9084;50.956;3.106;2023-05-10T04:22:45;24.27;;;17.60;;
17917;SDS011;9084;50.956;3.106;2023-05-10T04:25:10;24.63;;;20.48;;
17917;SDS011;9084;50.956;3.106;2023-05-10T04:27:36;24.42;;;17.33;;
17917;SDS011;9084;50.956;3.106;2023-05-10T04:30:04;21.33;;;17.52;;
17917;SDS011;9084;50.956;3.106;2023-05-10T04:32:33;22.30;;;17.05;;
17917;SDS011;9084;50.956;3.106;2023-05-10T04:35:01;22.17;;;15.48;;
17917;SDS011;9084;50.956;3.106;2023-05-10T04:37:28;17.38;;;15.00;;
17917;SDS011;9084;50.956;3.106;2023-05-10T04:39:54;20.85;;;16.55;;
17917;SDS011;9084;50.956;3.106;2023-05-10T04:42:19;22.23;;;15.75;;
17917;SDS011;9084;50.956;3.106;2023-05-10T04:44:47;18.52;;;14.63;;
17917;SDS011;9084;50.956;3.106;2023-05-10T04:47:13;17.50;;;14.55;;
17917;SDS011;9084;50.956;3.106;2023-05-10T04:49:39;22.83;;;14.50;;
17917;SDS011;9084;50.956;3.106;2023-05-10T04:52:04;20.67;;;13.70;;
17917;SDS011;9084;50.956;3.106;2023-05-10T04:54:32;15.68;;;13.63;;
17917;SDS011;9084;50.956;3.106;2023-05-10T04:56:57;17.33;;;15.45;;
17917;SDS011;9084;50.956;3.106;2023-05-10T04:59:23;15.88;;;14.07;;
17917;SDS011;9084;50.956;3.106;2023-05-10T05:01:49;18.58;;;14.38;;
17917;SDS011;9084;50.956;3.106;2023-05-10T05:04:17;17.58;;;14.13;;
17917;SDS011;9084;50.956;3.106;2023-05-10T05:06:45;18.23;;;14.32;;
17917;SDS011;9084;50.956;3.106;2023-05-10T05:09:10;16.48;;;13.80;;
17917;SDS011;9084;50.956;3.106;2023-05-10T05:11:36;16.85;;;12.88;;
17917;SDS011;9084;50.956;3.106;2023-05-10T05:14:04;19.30;;;13.27;;
17917;SDS011;9084;50.956;3.106;2023-05-10T05:16:30;15.60;;;12.40;;
17917;SDS011;9084;50.956;3.106;2023-05-10T05:18:59;15.35;;;12.70;;
17917;SDS011;9084;50.956;3.106;2023-05-10T05:21:25;14.68;;;12.30;;
17917;SDS011;9084;50.956;3.106;2023-05-10T05:23:52;15.07;;;11.88;;
17917;SDS011;9084;50.956;3.106;2023-05-10T05:26:22;12.75;;;11.27;;
17917;SDS011;9084;50.956;3.106;2023-05-10T05:28:47;12.55;;;10.85;;
17917;SDS011;9084;50.956;3.106;2023-05-10T05:31:14;15.38;;;12.50;;
17917;SDS011;9084;50.956;3.106;2023-05-10T05:33:42;14.75;;;11.82;;
17917;SDS011;9084;50.956;3.106;2023-05-10T05:36:08;12.60;;;11.30;;
17917;SDS011;9084;50.956;3.106;2023-05-10T05:38:36;13.82;;;12.43;;
17917;SDS011;9084;50.956;3.106;2023-05-10T05:41:02;15.32;;;12.80;;
17917;SDS011;9084;50.956;3.106;2023-05-10T05:43:28;15.20;;;13.70;;
17917;SDS011;9084;50.956;3.106;2023-05-10T05:45:56;16.63;;;14.05;;
17917;SDS011;9084;50.956;3.106;2023-05-10T05:48:23;15.77;;;13.95;;
17917;SDS011;9084;50.956;3.106;2023-05-10T05:50:48;16.63;;;14.90;;
17917;SDS011;9084;50.956;3.106;2023-05-10T05:53:21;18.77;;;14.57;;
17917;SDS011;9084;50.956;3.106;2023-05-10T05:58:22;16.67;;;12.88;;
17917;SDS011;9084;50.956;3.106;2023-05-10T06:00:49;14.38;;;12.93;;
17917;SDS011;9084;50.956;3.106;2023-05-10T06:03:15;14.70;;;12.75;;
17917;SDS011;9084;50.956;3.106;2023-05-10T06:05:43;16.40;;;13.88;;
17917;SDS011;9084;50.956;3.106;2023-05-10T06:08:09;14.70;;;13.30;;
17917;SDS011;9084;50.956;3.106;2023-05-10T06:10:35;14.95;;;13.45;;
17917;SDS011;9084;50.956;3.106;2023-05-10T06:13:01;15.20;;;13.60;;
17917;SDS011;9084;50.956;3.106;2023-05-10T06:15:26;15.88;;;14.32;;
17917;SDS011;9084;50.956;3.106;2023-05-10T06:17:55;13.57;;;11.93;;
17917;SDS011;9084;50.956;3.106;2023-05-10T06:20:22;15.07;;;13.55;;
17917;SDS011;9084;50.956;3.106;2023-05-10T06:22:48;14.85;;;13.23;;
17917;SDS011;9084;50.956;3.106;2023-05-10T06:25:14;14.35;;;12.85;;
17917;SDS011;9084;50.956;3.106;2023-05-10T06:27:39;14.68;;;13.07;;
17917;SDS011;9084;50.956;3.106;2023-05-10T06:30:08;14.50;;;13.10;;
17917;SDS011;9084;50.956;3.106;2023-05-10T06:32:34;14.10;;;12.57;;
17917;SDS011;9084;50.956;3.106;2023-05-10T06:35:00;15.25;;;13.65;;
17917;SDS011;9084;50.956;3.106;2023-05-10T06:37:25;15.95;;;14.38;;
17917;SDS011;9084;50.956;3.106;2023-05-10T06:39:51;15.05;;;13.70;;
17917;SDS011;9084;50.956;3.106;2023-05-10T06:42:17;14.82;;;13.18;;
17917;SDS011;9084;50.956;3.106;2023-05-10T06:44:45;14.60;;;13.10;;
17917;SDS011;9084;50.956;3.106;2023-05-10T06:47:10;13.68;;;11.88;;
17917;SDS011;9084;50.956;3.106;2023-05-10T06:49:36;13.45;;;12.25;;
17917;SDS011;9084;50.956;3.106;2023-05-10T06:52:02;14.32;;;12.85;;
17917;SDS011;9084;50.956;3.106;2023-05-10T06:54:30;15.02;;;13.45;;
17917;SDS011;9084;50.956;3.106;2023-05-10T06:56:55;15.10;;;13.65;;
17917;SDS011;9084;50.956;3.106;2023-05-10T06:59:21;15.25;;;13.85;;
17917;SDS011;9084;50.956;3.106;2023-05-10T07:01:49;17.90;;;14.32;;
17917;SDS011;9084;50.956;3.106;2023-05-10T07:04:15;15.85;;;14.18;;
17917;SDS011;9084;50.956;3.106;2023-05-10T07:06:41;15.18;;;13.77;;
17917;SDS011;9084;50.956;3.106;2023-05-10T07:09:06;15.63;;;14.23;;
17917;SDS011;9084;50.956;3.106;2023-05-10T07:11:35;16.40;;;14.80;;
17917;SDS011;9084;50.956;3.106;2023-05-10T07:14:01;16.48;;;15.07;;
17917;SDS011;9084;50.956;3.106;2023-05-10T07:16:28;14.93;;;13.55;;
17917;SDS011;9084;50.956;3.106;2023-05-10T07:18:54;15.95;;;14.38;;
17917;SDS011;9084;50.956;3.106;2023-05-10T07:21:22;14.50;;;13.23;;
17917;SDS011;9084;50.956;3.106;2023-05-10T07:23:49;11.48;;;10.57;;
17917;SDS011;9084;50.956;3.106;2023-05-10T07:26:15;10.55;;;9.63;;
17917;SDS011;9084;50.956;3.106;2023-05-10T07:28:41;10.88;;;9.88;;
17917;SDS011;9084;50.956;3.106;2023-05-10T07:31:11;12.55;;;11.40;;
17917;SDS011;9084;50.956;3.106;2023-05-10T07:33:37;12.63;;;11.60;;
17917;SDS011;9084;50.956;3.106;2023-05-10T07:36:03;13.57;;;12.27;;
17917;SDS011;9084;50.956;3.106;2023-05-10T07:38:33;11.65;;;10.52;;
17917;SDS011;9084;50.956;3.106;2023-05-10T07:40:58;9.35;;;8.57;;
17917;SDS011;9084;50.956;3.106;2023-05-10T07:43:24;9.90;;;8.98;;
17917;SDS011;9084;50.956;3.106;2023-05-10T07:45:52;10.02;;;9.13;;
17917;SDS011;9084;50.956;3.106;2023-05-10T07:48:18;10.88;;;9.70;;
17917;SDS011;9084;50.956;3.106;2023-05-10T07:50:43;10.70;;;9.90;;
17917;SDS011;9084;50.956;3.106;2023-05-10T07:53:09;10.82;;;9.88;;
17917;SDS011;9084;50.956;3.106;2023-05-10T07:55:35;11.02;;;10.13;;
17917;SDS011;9084;50.956;3.106;2023-05-10T07:58:00;11.65;;;10.70;;
17917;SDS011;9084;50.956;3.106;2023-05-10T08:00:26;9.07;;;8.20;;
17917;SDS011;9084;50.956;3.106;2023-05-10T08:02:54;10.35;;;9.45;;
17917;SDS011;9084;50.956;3.106;2023-05-10T08:05:20;9.00;;;8.20;;
17917;SDS011;9084;50.956;3.106;2023-05-10T08:07:46;8.52;;;7.82;;
17917;SDS011;9084;50.956;3.106;2023-05-10T08:10:13;8.88;;;8.15;;
17917;SDS011;9084;50.956;3.106;2023-05-10T08:12:39;8.05;;;7.32;;
17917;SDS011;9084;50.956;3.106;2023-05-10T08:15:05;8.45;;;7.75;;
17917;SDS011;9084;50.956;3.106;2023-05-10T08:17:34;9.48;;;8.60;;
17917;SDS011;9084;50.956;3.106;2023-05-10T08:19:59;9.52;;;8.48;;
17917;SDS011;9084;50.956;3.106;2023-05-10T08:22:25;9.18;;;8.48;;
17917;SDS011;9084;50.956;3.106;2023-05-10T08:24:51;9.18;;;8.48;;
17917;SDS011;9084;50.956;3.106;2023-05-10T08:27:17;10.48;;;9.57;;
17917;SDS011;9084;50.956;3.106;2023-05-10T08:29:45;9.35;;;8.52;;
17917;SDS011;9084;50.956;3.106;2023-05-10T08:32:10;9.13;;;8.48;;
17917;SDS011;9084;50.956;3.106;2023-05-10T08:34:38;11.52;;;10.60;;
17917;SDS011;9084;50.956;3.106;2023-05-10T08:37:06;11.85;;;10.95;;
17917;SDS011;9084;50.956;3.106;2023-05-10T08:39:35;12.52;;;11.52;;
17917;SDS011;9084;50.956;3.106;2023-05-10T08:42:01;12.45;;;11.25;;
17917;SDS011;9084;50.956;3.106;2023-05-10T08:44:32;13.02;;;11.82;;
17917;SDS011;9084;50.956;3.106;2023-05-10T08:47:02;13.75;;;12.65;;
17917;SDS011;9084;50.956;3.106;2023-05-10T08:49:32;13.40;;;12.20;;
17917;SDS011;9084;50.956;3.106;2023-05-10T08:52:02;13.57;;;12.38;;
17917;SDS011;9084;50.956;3.106;2023-05-10T08:54:31;13.52;;;12.23;;
17917;SDS011;9084;50.956;3.106;2023-05-10T08:56:59;12.60;;;11.70;;
17917;SDS011;9084;50.956;3.106;2023-05-10T08:59:25;15.10;;;13.73;;
17917;SDS011;9084;50.956;3.106;2023-05-10T09:01:54;13.75;;;12.65;;
17917;SDS011;9084;50.956;3.106;2023-05-10T09:04:22;14.23;;;13.02;;
17917;SDS011;9084;50.956;3.106;2023-05-10T09:06:49;13.98;;;12.70;;
17917;SDS011;9084;50.956;3.106;2023-05-10T09:09:14;14.23;;;12.93;;
17917;SDS011;9084;50.956;3.106;2023-05-10T09:11:41;13.07;;;11.77;;
17917;SDS011;9084;50.956;3.106;2023-05-10T09:14:08;14.70;;;13.40;;
17917;SDS011;9084;50.956;3.106;2023-05-10T09:16:34;14.75;;;10.88;;
17917;SDS011;9084;50.956;3.106;2023-05-10T09:19:00;12.82;;;11.52;;
17917;SDS011;9084;50.956;3.106;2023-05-10T09:21:31;12.73;;;11.27;;
17917;SDS011;9084;50.956;3.106;2023-05-10T09:24:02;12.38;;;10.45;;
17917;SDS011;9084;50.956;3.106;2023-05-10T09:26:29;13.60;;;11.70;;
17917;SDS011;9084;50.956;3.106;2023-05-10T09:28:56;13.13;;;10.18;;
17917;SDS011;9084;50.956;3.106;2023-05-10T09:31:43;11.88;;;9.95;;
17917;SDS011;9084;50.956;3.106;2023-05-10T09:34:30;13.15;;;9.75;;
17917;SDS011;9084;50.956;3.106;2023-05-10T09:36:58;14.35;;;10.70;;
17917;SDS011;9084;50.956;3.106;2023-05-10T09:42:04;10.93;;;9.48;;
17917;SDS011;9084;50.956;3.106;2023-05-10T09:44:31;10.27;;;9.23;;
17917;SDS011;9084;50.956;3.106;2023-05-10T09:47:01;11.65;;;9.85;;
17917;SDS011;9084;50.956;3.106;2023-05-10T09:49:28;9.13;;;8.23;;
17917;SDS011;9084;50.956;3.106;2023-05-10T09:52:00;9.25;;;8.32;;
17917;SDS011;9084;50.956;3.106;2023-05-10T09:54:30;8.55;;;7.85;;
17917;SDS011;9084;50.956;3.106;2023-05-10T09:56:56;8.10;;;7.13;;
17917;SDS011;9084;50.956;3.106;2023-05-10T09:59:25;7.78;;;6.75;;
17917;SDS011;9084;50.956;3.106;2023-05-10T10:01:55;7.40;;;6.30;;
17917;SDS011;9084;50.956;3.106;2023-05-10T10:04:22;7.07;;;6.38;;
17917;SDS011;9084;50.956;3.106;2023-05-10T10:06:58;7.30;;;6.55;;
17917;SDS011;9084;50.956;3.106;2023-05-10T10:09:25;6.65;;;6.03;;
17917;SDS011;9084;50.956;3.106;2023-05-10T10:11:51;7.50;;;5.97;;
17917;SDS011;9084;50.956;3.106;2023-05-10T10:14:20;10.07;;;6.57;;
17917;SDS011;9084;50.956;3.106;2023-05-10T10:16:48;6.10;;;5.50;;
17917;SDS011;9084;50.956;3.106;2023-05-10T10:19:19;7.72;;;5.68;;
17917;SDS011;9084;50.956;3.106;2023-05-10T10:21:46;7.45;;;6.05;;
17917;SDS011;9084;50.956;3.106;2023-05-10T10:24:12;7.03;;;5.55;;
17917;SDS011;9084;50.956;3.106;2023-05-10T10:26:41;6.25;;;5.57;;
17917;SDS011;9084;50.956;3.106;2023-05-10T10:31:55;7.95;;;5.47;;
17917;SDS011;9084;50.956;3.106;2023-05-10T10:34:26;5.95;;;4.70;;
17917;SDS011;9084;50.956;3.106;2023-05-10T10:36:53;7.63;;;5.68;;
17917;SDS011;9084;50.956;3.106;2023-05-10T10:39:21;5.53;;;5.03;;
17917;SDS011;9084;50.956;3.106;2023-05-10T10:41:51;5.28;;;4.68;;
17917;SDS011;9084;50.956;3.106;2023-05-10T10:49:25;9.00;;;4.90;;
17917;SDS011;9084;50.956;3.106;2023-05-10T10:57:48;5.78;;;4.28;;
17917;SDS011;9084;50.956;3.106;2023-05-10T11:10:49;8.73;;;5.20;;
17917;SDS011;9084;50.956;3.106;2023-05-10T11:13:31;7.15;;;4.88;;
17917;SDS011;9084;50.956;3.106;2023-05-10T11:15:57;6.70;;;5.47;;
17917;SDS011;9084;50.956;3.106;2023-05-10T11:20:57;5.75;;;4.85;;
17917;SDS011;9084;50.956;3.106;2023-05-10T11:23:34;8.07;;;4.97;;
17917;SDS011;9084;50.956;3.106;2023-05-10T11:26:14;8.57;;;5.20;;
17917;SDS011;9084;50.956;3.106;2023-05-10T11:28:44;6.82;;;4.95;;
17917;SDS011;9084;50.956;3.106;2023-05-10T11:31:13;6.28;;;4.30;;
17917;SDS011;9084;50.956;3.106;2023-05-10T11:33:45;6.20;;;3.97;;
17917;SDS011;9084;50.956;3.106;2023-05-10T11:36:16;7.03;;;4.15;;
17917;SDS011;9084;50.956;3.106;2023-05-10T11:38:46;7.57;;;3.95;;
17917;SDS011;9084;50.956;3.106;2023-05-10T11:41:12;4.82;;;3.50;;
17917;SDS011;9084;50.956;3.106;2023-05-10T11:43:38;4.60;;;3.40;;
17917;SDS011;9084;50.956;3.106;2023-05-10T11:46:06;6.82;;;3.78;;
17917;SDS011;9084;50.956;3.106;2023-05-10T11:48:35;9.52;;;3.80;;
17917;SDS011;9084;50.956;3.106;2023-05-10T11:51:10;5.68;;;3.72;;
17917;SDS011;9084;50.956;3.106;2023-05-10T11:53:38;7.20;;;3.97;;
17917;SDS011;9084;50.956;3.106;2023-05-10T11:56:09;5.35;;;3.95;;
17917;SDS011;9084;50.956;3.106;2023-05-10T11:58:38;7.45;;;3.72;;
17917;SDS011;9084;50.956;3.106;2023-05-10T12:01:06;8.98;;;4.00;;
17917;SDS011;9084;50.956;3.106;2023-05-10T12:03:37;5.53;;;3.38;;
17917;SDS011;9084;50.956;3.106;2023-05-10T12:06:08;7.00;;;3.85;;
17917;SDS011;9084;50.956;3.106;2023-05-10T12:08:34;6.00;;;3.95;;
17917;SDS011;9084;50.956;3.106;2023-05-10T12:11:06;5.40;;;3.80;;
17917;SDS011;9084;50.956;3.106;2023-05-10T12:13:37;5.60;;;3.20;;
17917;SDS011;9084;50.956;3.106;2023-05-10T12:16:13;6.63;;;2.75;;
17917;SDS011;9084;50.956;3.106;2023-05-10T12:18:44;7.65;;;2.65;;
17917;SDS011;9084;50.956;3.106;2023-05-10T12:21:15;5.97;;;2.90;;
17917;SDS011;9084;50.956;3.106;2023-05-10T12:23:45;7.40;;;3.38;;
17917;SDS011;9084;50.956;3.106;2023-05-10T12:26:16;6.00;;;2.83;;
17917;SDS011;9084;50.956;3.106;2023-05-10T12:28:42;5.15;;;3.13;;
17917;SDS011;9084;50.956;3.106;2023-05-10T12:31:11;7.45;;;3.08;;
17917;SDS011;9084;50.956;3.106;2023-05-10T12:33:40;6.05;;;2.88;;
17917;SDS011;9084;50.956;3.106;2023-05-10T12:36:08;4.57;;;2.47;;
17917;SDS011;9084;50.956;3.106;2023-05-10T12:38:35;5.82;;;2.42;;
17917;SDS011;9084;50.956;3.106;2023-05-10T12:41:03;7.22;;;2.53;;
17917;SDS011;9084;50.956;3.106;2023-05-10T12:43:30;6.20;;;3.25;;
17917;SDS011;9084;50.956;3.106;2023-05-10T12:45:57;5.57;;;2.45;;
17917;SDS011;9084;50.956;3.106;2023-05-10T12:48:22;4.13;;;1.92;;
17917;SDS011;9084;50.956;3.106;2023-05-10T12:50:48;4.63;;;2.03;;
17917;SDS011;9084;50.956;3.106;2023-05-10T12:53:16;6.82;;;2.90;;
17917;SDS011;9084;50.956;3.106;2023-05-10T12:55:42;6.97;;;2.42;;
17917;SDS011;9084;50.956;3.106;2023-05-10T12:58:08;6.00;;;2.95;;
17917;SDS011;9084;50.956;3.106;2023-05-10T13:00:34;6.68;;;2.80;;
17917;SDS011;9084;50.956;3.106;2023-05-10T13:03:03;6.13;;;2.92;;
17917;SDS011;9084;50.956;3.106;2023-05-10T13:05:35;5.70;;;3.15;;
17917;SDS011;9084;50.956;3.106;2023-05-10T13:08:01;8.27;;;3.20;;
17917;SDS011;9084;50.956;3.106;2023-05-10T13:10:29;5.45;;;3.10;;
17917;SDS011;9084;50.956;3.106;2023-05-10T13:12:55;4.93;;;2.55;;
17917;SDS011;9084;50.956;3.106;2023-05-10T13:15:21;4.28;;;2.47;;
17917;SDS011;9084;50.956;3.106;2023-05-10T13:17:49;8.43;;;2.80;;
17917;SDS011;9084;50.956;3.106;2023-05-10T13:20:17;7.20;;;2.78;;
17917;SDS011;9084;50.956;3.106;2023-05-10T13:22:45;4.40;;;2.15;;
17917;SDS011;9084;50.956;3.106;2023-05-10T13:25:13;4.75;;;2.05;;
17917;SDS011;9084;50.956;3.106;2023-05-10T13:27:44;2.50;;;1.50;;
17917;SDS011;9084;50.956;3.106;2023-05-10T13:30:09;5.28;;;2.17;;
17917;SDS011;9084;50.956;3.106;2023-05-10T13:32:36;5.00;;;2.60;;
17917;SDS011;9084;50.956;3.106;2023-05-10T13:35:04;4.07;;;2.10;;
17917;SDS011;9084;50.956;3.106;2023-05-10T13:37:33;3.20;;;2.20;;
17917;SDS011;9084;50.956;3.106;2023-05-10T13:40:02;4.38;;;2.35;;
17917;SDS011;9084;50.956;3.106;2023-05-10T13:42:29;3.90;;;1.92;;
17917;SDS011;9084;50.956;3.106;2023-05-10T13:44:54;4.85;;;2.35;;
17917;SDS011;9084;50.956;3.106;2023-05-10T13:47:22;4.72;;;2.80;;
17917;SDS011;9084;50.956;3.106;2023-05-10T13:49:48;6.25;;;2.80;;
17917;SDS011;9084;50.956;3.106;2023-05-10T13:52:13;5.35;;;3.38;;
17917;SDS011;9084;50.956;3.106;2023-05-10T13:54:39;5.60;;;2.83;;
17917;SDS011;9084;50.956;3.106;2023-05-10T13:57:05;5.70;;;3.05;;
17917;SDS011;9084;50.956;3.106;2023-05-10T13:59:31;6.15;;;3.50;;
17917;SDS011;9084;50.956;3.106;2023-05-10T14:01:57;7.05;;;3.05;;
17917;SDS011;9084;50.956;3.106;2023-05-10T14:04:27;6.28;;;3.50;;
17917;SDS011;9084;50.956;3.106;2023-05-10T14:06:58;7.38;;;2.70;;
17917;SDS011;9084;50.956;3.106;2023-05-10T14:09:26;5.75;;;2.80;;
17917;SDS011;9084;50.956;3.106;2023-05-10T14:11:52;4.60;;;2.45;;
17917;SDS011;9084;50.956;3.106;2023-05-10T14:14:18;4.03;;;2.38;;
17917;SDS011;9084;50.956;3.106;2023-05-10T14:16:43;4.97;;;2.08;;
17917;SDS011;9084;50.956;3.106;2023-05-10T14:19:12;5.13;;;2.42;;
17917;SDS011;9084;50.956;3.106;2023-05-10T14:21:37;7.78;;;2.50;;
17917;SDS011;9084;50.956;3.106;2023-05-10T14:24:03;6.18;;;2.65;;
17917;SDS011;9084;50.956;3.106;2023-05-10T14:26:29;7.00;;;2.58;;
17917;SDS011;9084;50.956;3.106;2023-05-10T14:28:55;3.78;;;1.75;;
17917;SDS011;9084;50.956;3.106;2023-05-10T14:31:20;4.78;;;2.40;;
17917;SDS011;9084;50.956;3.106;2023-05-10T14:33:50;4.30;;;2.30;;
17917;SDS011;9084;50.956;3.106;2023-05-10T14:36:16;6.10;;;2.40;;
17917;SDS011;9084;50.956;3.106;2023-05-10T14:38:42;4.75;;;2.55;;
17917;SDS011;9084;50.956;3.106;2023-05-10T14:41:08;5.28;;;2.70;;
17917;SDS011;9084;50.956;3.106;2023-05-10T14:43:34;3.17;;;1.60;;
17917;SDS011;9084;50.956;3.106;2023-05-10T14:46:02;4.50;;;1.80;;
17917;SDS011;9084;50.956;3.106;2023-05-10T14:48:28;6.75;;;2.28;;
17917;SDS011;9084;50.956;3.106;2023-05-10T14:50:53;4.75;;;2.38;;
17917;SDS011;9084;50.956;3.106;2023-05-10T14:53:21;5.05;;;1.88;;
17917;SDS011;9084;50.956;3.106;2023-05-10T14:55:47;3.72;;;1.70;;
17917;SDS011;9084;50.956;3.106;2023-05-10T14:58:15;5.28;;;2.03;;
17917;SDS011;9084;50.956;3.106;2023-05-10T15:00:41;3.20;;;1.80;;
17917;SDS011;9084;50.956;3.106;2023-05-10T15:03:09;4.45;;;2.35;;
17917;SDS011;9084;50.956;3.106;2023-05-10T15:05:37;4.05;;;2.15;;
17917;SDS011;9084;50.956;3.106;2023-05-10T15:08:03;5.35;;;2.00;;
17917;SDS011;9084;50.956;3.106;2023-05-10T15:10:29;4.55;;;1.60;;
17917;SDS011;9084;50.956;3.106;2023-05-10T15:12:57;5.28;;;2.28;;
17917;SDS011;9084;50.956;3.106;2023-05-10T15:15:23;6.20;;;2.47;;
17917;SDS011;9084;50.956;3.106;2023-05-10T15:17:51;5.00;;;2.13;;
17917;SDS011;9084;50.956;3.106;2023-05-10T15:20:17;3.65;;;2.00;;
17917;SDS011;9084;50.956;3.106;2023-05-10T15:22:42;6.38;;;2.10;;
17917;SDS011;9084;50.956;3.106;2023-05-10T15:25:08;4.30;;;2.17;;
17917;SDS011;9084;50.956;3.106;2023-05-10T15:27:34;6.68;;;2.28;;
17917;SDS011;9084;50.956;3.106;2023-05-10T15:30:00;5.80;;;2.03;;
17917;SDS011;9084;50.956;3.106;2023-05-10T15:32:26;3.90;;;1.83;;
17917;SDS011;9084;50.956;3.106;2023-05-10T15:34:56;5.05;;;2.60;;
17917;SDS011;9084;50.956;3.106;2023-05-10T15:37:23;4.47;;;1.88;;
17917;SDS011;9084;50.956;3.106;2023-05-10T15:39:51;8.52;;;2.20;;
17917;SDS011;9084;50.956;3.106;2023-05-10T15:42:19;4.00;;;1.90;;